Wetterdaten: aktuell Mittwoch, 19.09.2018 07:45
Datum Zeit Temp. A. Feuchte A. Luftdruck Regen Wind Richtung Richtung Taupunkt Windchill Windben
19.09.2018 07:45 14,7 C 93 % 1024,9 hPa 0,0 l/m 4,8 km/h (1 Bft) S 180 13,6 C 14,7 C 6,4 km/h (2 Bft)
19.09.2018 06:45 13,3 C 94 % 1024,6 hPa 0,0 l/m 0,0 km/h (0 Bft) W-SW 247 12,4 C 13,3 C 1,6 km/h (1 Bft)
19.09.2018 05:45 13,8 C 91 % 1023,9 hPa 0,0 l/m 3,2 km/h (1 Bft) O-NO 67 12,4 C 13,8 C 3,2 km/h (1 Bft)
19.09.2018 04:45 14,4 C 91 % 1024,0 hPa 0,0 l/m 1,6 km/h (1 Bft) S 180 12,9 C 14,4 C 3,2 km/h (1 Bft)
19.09.2018 03:45 14,8 C 90 % 1024,2 hPa 0,2 l/m 3,2 km/h (1 Bft) SW 225 13,2 C 14,8 C 4,8 km/h (1 Bft)
19.09.2018 02:45 15,4 C 88 % 1023,9 hPa 0,0 l/m 3,2 km/h (1 Bft) O-NO 67 13,4 C 15,4 C 6,4 km/h (2 Bft)
19.09.2018 01:45 14,9 C 91 % 1023,5 hPa 0,0 l/m 0,0 km/h (0 Bft) S-SO 157 13,4 C 14,9 C 1,6 km/h (1 Bft)
19.09.2018 00:45 15,4 C 90 % 1023,5 hPa 0,0 l/m 1,6 km/h (1 Bft) O 90 13,8 C 15,4 C 3,2 km/h (1 Bft)
18.09.2018 23:45 15,2 C 90 % 1023,1 hPa 0,0 l/m 1,6 km/h (1 Bft) SO 135 13,6 C 15,2 C 3,2 km/h (1 Bft)
18.09.2018 22:45 15,4 C 89 % 1022,9 hPa 0,2 l/m 9,7 km/h (2 Bft) O-SO 112 13,6 C 13,7 C 16,1 km/h (3 Bft)
18.09.2018 21:45 15,3 C 90 % 1022,5 hPa 2,8 l/m 6,4 km/h (2 Bft) O 90 13,7 C 15,3 C 11,3 km/h (2 Bft)
18.09.2018 20:45 15,7 C 87 % 1022,7 hPa 0,6 l/m 19,3 km/h (3 Bft) S-SW 202 13,5 C 10,8 C 24,1 km/h (4 Bft)
18.09.2018 19:45 16,7 C 83 % 1022,3 hPa 0,2 l/m 14,5 km/h (3 Bft) S-SW 202 13,8 C 13,4 C 17,7 km/h (3 Bft)
18.09.2018 18:45 19,4 C 70 % 1021,5 hPa 0,0 l/m 19,3 km/h (3 Bft) S-SW 202 13,8 C 15,6 C 29,0 km/h (5 Bft)
18.09.2018 17:45 21,9 C 73 % 1019,9 hPa 0,0 l/m 0,0 km/h (0 Bft) N 0 16,8 C 21,9 C 0,0 km/h (0 Bft)
18.09.2018 16:45 25,6 C 56 % 1019,7 hPa 0,0 l/m 1,6 km/h (1 Bft) NO 45 16,2 C 25,6 C 3,2 km/h (1 Bft)
18.09.2018 15:45 26,0 C 57 % 1019,8 hPa 0,0 l/m 1,6 km/h (1 Bft) N-NO 22 16,8 C 26,0 C 4,8 km/h (1 Bft)
18.09.2018 14:45 27,1 C 55 % 1020,2 hPa 0,0 l/m 1,6 km/h (1 Bft) W-NW 292 17,3 C 27,1 C 3,2 km/h (1 Bft)
18.09.2018 13:45 26,1 C 52 % 1020,6 hPa 0,0 l/m 3,2 km/h (1 Bft) N-NO 22 15,5 C 26,1 C 4,8 km/h (1 Bft)
18.09.2018 12:45 25,4 C 54 % 1021,0 hPa 0,0 l/m 3,2 km/h (1 Bft) NW 315 15,4 C 25,4 C 4,8 km/h (1 Bft)
18.09.2018 11:45 24,9 C 65 % 1021,4 hPa 0,0 l/m 6,4 km/h (2 Bft) SW 225 17,9 C 24,9 C 8,0 km/h (2 Bft)
18.09.2018 10:45 21,3 C 77 % 1021,9 hPa 0,0 l/m 4,8 km/h (1 Bft) SW 225 17,1 C 21,3 C 9,7 km/h (2 Bft)
18.09.2018 09:45 17,6 C 90 % 1021,7 hPa 0,0 l/m 1,6 km/h (1 Bft) S-SW 202 15,9 C 17,6 C 4,8 km/h (1 Bft)
18.09.2018 08:45 14,5 C 96 % 1021,7 hPa 0,0 l/m 1,6 km/h (1 Bft) S-SW 202 13,9 C 14,5 C 1,6 km/h (1 Bft)
18.09.2018 08:00 12,2 C 95 % 1021,6 hPa 0,0 l/m 3,2 km/h (1 Bft) S-SW 202 11,4 C 12,2 C 3,2 km/h (1 Bft)
_ Min-Zeit 08:00 14:18 16:17 - 12:17 - - 08:00 20:55 16:54
Minimum _ 12,2 C 49 % 1019,6 hPa - 0,0 km/h (0 Bft) - - 11,4 C 8,7 C 0,0 km/h (0 Bft)
_ Max-Zeit 14:44 08:17 07:42 19:42 18:21 - - 14:01 14:44 18:21
Maximum _ 27,1 C 96 % 1024,9 hPa 0,2 l/m 32,2 km/h
SW (5 Bft)
- - 18,7 C 27,1 C 40,2 km/h
SW (6 Bft)
Durchschnitt _ 18,0 C 81 % 1022,2 hPa #4,0 l/m 5,8 km/h (2 Bft) S-SW - 14,3 C 17,3 C 8,2 km/h (2 Bft)